sensor_id;sensor_type;location;lat;lon;timestamp;temperature;humidity
32147;DHT22;32190;49.112;8.598;2023-04-08T00:01:43;14.30;51.50
32147;DHT22;32190;49.112;8.598;2023-04-08T00:07:35;14.20;51.60
32147;DHT22;32190;49.112;8.598;2023-04-08T00:13:26;14.20;51.70
32147;DHT22;32190;49.112;8.598;2023-04-08T00:19:17;14.20;51.90
32147;DHT22;32190;49.112;8.598;2023-04-08T00:25:07;14.10;51.90
32147;DHT22;32190;49.112;8.598;2023-04-08T00:30:58;14.10;52.10
32147;DHT22;32190;49.112;8.598;2023-04-08T00:36:49;14.10;52.20
32147;DHT22;32190;49.112;8.598;2023-04-08T00:42:40;14.00;52.30
32147;DHT22;32190;49.112;8.598;2023-04-08T00:48:31;14.00;52.40
32147;DHT22;32190;49.112;8.598;2023-04-08T00:54:22;13.90;52.50
32147;DHT22;32190;49.112;8.598;2023-04-08T01:00:13;13.90;52.60
32147;DHT22;32190;49.112;8.598;2023-04-08T01:12:42;13.90;53.10
32147;DHT22;32190;49.112;8.598;2023-04-08T01:18:34;13.90;52.70
32147;DHT22;32190;49.112;8.598;2023-04-08T01:24:30;13.90;52.50
32147;DHT22;32190;49.112;8.598;2023-04-08T01:30:23;13.90;52.70
32147;DHT22;32190;49.112;8.598;2023-04-08T01:36:16;13.90;52.60
32147;DHT22;32190;49.112;8.598;2023-04-08T01:42:08;13.90;52.80
32147;DHT22;32190;49.112;8.598;2023-04-08T01:48:00;13.80;52.80
32147;DHT22;32190;49.112;8.598;2023-04-08T01:53:51;13.80;52.90
32147;DHT22;32190;49.112;8.598;2023-04-08T01:59:42;13.80;52.90
32147;DHT22;32190;49.112;8.598;2023-04-08T02:05:33;13.80;53.00
32147;DHT22;32190;49.112;8.598;2023-04-08T02:11:24;13.80;52.80
32147;DHT22;32190;49.112;8.598;2023-04-08T02:17:30;13.90;52.80
32147;DHT22;32190;49.112;8.598;2023-04-08T02:23:23;13.80;52.80
32147;DHT22;32190;49.112;8.598;2023-04-08T02:29:15;13.90;52.70
32147;DHT22;32190;49.112;8.598;2023-04-08T02:35:07;13.90;52.50
32147;DHT22;32190;49.112;8.598;2023-04-08T02:41:00;13.90;52.60
32147;DHT22;32190;49.112;8.598;2023-04-08T02:46:51;13.90;52.50
32147;DHT22;32190;49.112;8.598;2023-04-08T02:52:41;13.90;52.40
32147;DHT22;32190;49.112;8.598;2023-04-08T02:58:34;14.00;52.60
32147;DHT22;32190;49.112;8.598;2023-04-08T03:04:24;13.90;52.60
32147;DHT22;32190;49.112;8.598;2023-04-08T03:10:15;13.90;52.60
32147;DHT22;32190;49.112;8.598;2023-04-08T03:16:06;13.80;52.50
32147;DHT22;32190;49.112;8.598;2023-04-08T03:21:57;13.80;52.40
32147;DHT22;32190;49.112;8.598;2023-04-08T03:27:47;13.80;52.20
32147;DHT22;32190;49.112;8.598;2023-04-08T03:33:38;13.80;52.20
32147;DHT22;32190;49.112;8.598;2023-04-08T03:39:33;13.70;52.10
32147;DHT22;32190;49.112;8.598;2023-04-08T03:45:23;13.70;52.20
32147;DHT22;32190;49.112;8.598;2023-04-08T03:51:14;13.70;52.00
32147;DHT22;32190;49.112;8.598;2023-04-08T03:57:05;13.60;52.00
32147;DHT22;32190;49.112;8.598;2023-04-08T04:02:55;13.50;52.20
32147;DHT22;32190;49.112;8.598;2023-04-08T04:08:46;13.50;52.30
32147;DHT22;32190;49.112;8.598;2023-04-08T04:14:36;13.50;52.40
32147;DHT22;32190;49.112;8.598;2023-04-08T04:20:27;13.40;52.60
32147;DHT22;32190;49.112;8.598;2023-04-08T04:26:19;13.40;52.70
32147;DHT22;32190;49.112;8.598;2023-04-08T04:32:10;13.40;52.60
32147;DHT22;32190;49.112;8.598;2023-04-08T04:38:01;13.40;52.50
32147;DHT22;32190;49.112;8.598;2023-04-08T04:43:51;13.40;52.40
32147;DHT22;32190;49.112;8.598;2023-04-08T04:49:42;13.40;52.30
32147;DHT22;32190;49.112;8.598;2023-04-08T04:55:32;13.30;52.20
32147;DHT22;32190;49.112;8.598;2023-04-08T05:01:23;13.30;52.20
32147;DHT22;32190;49.112;8.598;2023-04-08T05:07:14;13.30;52.20
32147;DHT22;32190;49.112;8.598;2023-04-08T05:13:04;13.20;52.20
32147;DHT22;32190;49.112;8.598;2023-04-08T05:18:55;13.20;52.20
32147;DHT22;32190;49.112;8.598;2023-04-08T05:24:45;13.10;52.20
32147;DHT22;32190;49.112;8.598;2023-04-08T05:30:36;13.10;52.30
32147;DHT22;32190;49.112;8.598;2023-04-08T05:36:27;13.00;52.30
32147;DHT22;32190;49.112;8.598;2023-04-08T05:42:17;13.00;52.40
32147;DHT22;32190;49.112;8.598;2023-04-08T05:48:08;13.00;52.40
32147;DHT22;32190;49.112;8.598;2023-04-08T05:53:59;12.90;52.50
32147;DHT22;32190;49.112;8.598;2023-04-08T05:59:49;12.90;52.80
32147;DHT22;32190;49.112;8.598;2023-04-08T06:05:40;12.90;53.00
32147;DHT22;32190;49.112;8.598;2023-04-08T06:11:30;12.90;53.20
32147;DHT22;32190;49.112;8.598;2023-04-08T06:17:21;12.90;53.50
32147;DHT22;32190;49.112;8.598;2023-04-08T06:23:12;13.00;53.80
32147;DHT22;32190;49.112;8.598;2023-04-08T06:29:03;13.00;54.00
32147;DHT22;32190;49.112;8.598;2023-04-08T06:34:54;13.00;54.10
32147;DHT22;32190;49.112;8.598;2023-04-08T06:40:44;13.10;54.30
32147;DHT22;32190;49.112;8.598;2023-04-08T06:46:35;13.10;54.40
32147;DHT22;32190;49.112;8.598;2023-04-08T06:52:25;13.20;54.70
32147;DHT22;32190;49.112;8.598;2023-04-08T06:58:16;13.20;54.80
32147;DHT22;32190;49.112;8.598;2023-04-08T07:04:07;13.20;55.00
32147;DHT22;32190;49.112;8.598;2023-04-08T07:09:58;13.20;55.30
32147;DHT22;32190;49.112;8.598;2023-04-08T07:15:48;13.20;55.30
32147;DHT22;32190;49.112;8.598;2023-04-08T07:21:39;13.20;55.50
32147;DHT22;32190;49.112;8.598;2023-04-08T07:27:29;13.20;55.20
32147;DHT22;32190;49.112;8.598;2023-04-08T07:33:20;13.30;55.30
32147;DHT22;32190;49.112;8.598;2023-04-08T07:39:10;13.40;55.20
32147;DHT22;32190;49.112;8.598;2023-04-08T07:45:01;13.50;55.20
32147;DHT22;32190;49.112;8.598;2023-04-08T07:50:51;13.60;55.20
32147;DHT22;32190;49.112;8.598;2023-04-08T07:56:42;13.70;55.10
32147;DHT22;32190;49.112;8.598;2023-04-08T08:02:34;13.70;55.20
32147;DHT22;32190;49.112;8.598;2023-04-08T08:08:24;13.70;55.20
32147;DHT22;32190;49.112;8.598;2023-04-08T08:14:15;13.80;55.20
32147;DHT22;32190;49.112;8.598;2023-04-08T08:20:06;13.90;55.40
32147;DHT22;32190;49.112;8.598;2023-04-08T08:26:01;14.10;55.20
32147;DHT22;32190;49.112;8.598;2023-04-08T08:31:52;14.20;55.20
32147;DHT22;32190;49.112;8.598;2023-04-08T08:37:43;14.30;54.70
32147;DHT22;32190;49.112;8.598;2023-04-08T08:43:34;14.40;54.40
32147;DHT22;32190;49.112;8.598;2023-04-08T08:49:25;14.50;54.20
32147;DHT22;32190;49.112;8.598;2023-04-08T08:55:17;14.60;54.10
32147;DHT22;32190;49.112;8.598;2023-04-08T09:07:27;14.80;53.60
32147;DHT22;32190;49.112;8.598;2023-04-08T09:13:17;14.90;53.30
32147;DHT22;32190;49.112;8.598;2023-04-08T09:19:09;14.90;53.10
32147;DHT22;32190;49.112;8.598;2023-04-08T09:25:20;14.90;53.00
32147;DHT22;32190;49.112;8.598;2023-04-08T09:31:18;14.90;52.50
32147;DHT22;32190;49.112;8.598;2023-04-08T09:37:12;15.00;51.30
32147;DHT22;32190;49.112;8.598;2023-04-08T09:43:08;15.10;51.20
32147;DHT22;32190;49.112;8.598;2023-04-08T09:55:02;15.20;49.70
32147;DHT22;32190;49.112;8.598;2023-04-08T10:00:54;15.30;48.80
32147;DHT22;32190;49.112;8.598;2023-04-08T10:06:53;15.40;48.60
32147;DHT22;32190;49.112;8.598;2023-04-08T10:12:47;15.50;48.40
32147;DHT22;32190;49.112;8.598;2023-04-08T10:18:38;15.70;47.10
32147;DHT22;32190;49.112;8.598;2023-04-08T10:24:29;15.70;46.80
32147;DHT22;32190;49.112;8.598;2023-04-08T10:30:47;15.90;46.60
32147;DHT22;32190;49.112;8.598;2023-04-08T10:36:38;15.90;45.70
32147;DHT22;32190;49.112;8.598;2023-04-08T10:42:29;16.10;45.50
32147;DHT22;32190;49.112;8.598;2023-04-08T10:48:21;16.10;45.00
32147;DHT22;32190;49.112;8.598;2023-04-08T10:54:15;16.10;45.30
32147;DHT22;32190;49.112;8.598;2023-04-08T11:00:10;16.10;44.30
32147;DHT22;32190;49.112;8.598;2023-04-08T11:06:02;16.00;44.60
32147;DHT22;32190;49.112;8.598;2023-04-08T11:11:52;16.00;44.80
32147;DHT22;32190;49.112;8.598;2023-04-08T11:17:43;16.00;44.50
32147;DHT22;32190;49.112;8.598;2023-04-08T11:23:35;16.00;44.30
32147;DHT22;32190;49.112;8.598;2023-04-08T11:29:25;16.00;43.90
32147;DHT22;32190;49.112;8.598;2023-04-08T11:35:17;16.00;43.60
32147;DHT22;32190;49.112;8.598;2023-04-08T11:41:08;15.90;42.80
32147;DHT22;32190;49.112;8.598;2023-04-08T11:46:59;16.00;41.80
32147;DHT22;32190;49.112;8.598;2023-04-08T11:52:51;16.00;41.70
32147;DHT22;32190;49.112;8.598;2023-04-08T11:58:42;16.10;41.70
32147;DHT22;32190;49.112;8.598;2023-04-08T12:04:33;16.10;41.90
32147;DHT22;32190;49.112;8.598;2023-04-08T12:10:23;16.20;42.30
32147;DHT22;32190;49.112;8.598;2023-04-08T12:16:17;16.20;43.30
32147;DHT22;32190;49.112;8.598;2023-04-08T12:22:08;16.20;43.20
32147;DHT22;32190;49.112;8.598;2023-04-08T12:27:58;16.30;43.60
32147;DHT22;32190;49.112;8.598;2023-04-08T12:33:49;16.40;43.20
32147;DHT22;32190;49.112;8.598;2023-04-08T12:39:39;16.30;43.30
32147;DHT22;32190;49.112;8.598;2023-04-08T12:45:30;16.30;43.00
32147;DHT22;32190;49.112;8.598;2023-04-08T12:51:21;16.30;43.40
32147;DHT22;32190;49.112;8.598;2023-04-08T12:57:11;16.30;43.00
32147;DHT22;32190;49.112;8.598;2023-04-08T13:03:03;16.40;42.80
32147;DHT22;32190;49.112;8.598;2023-04-08T13:08:54;16.40;42.10
32147;DHT22;32190;49.112;8.598;2023-04-08T13:14:44;16.40;42.70
32147;DHT22;32190;49.112;8.598;2023-04-08T13:20:35;16.60;42.40
32147;DHT22;32190;49.112;8.598;2023-04-08T13:26:26;16.60;41.90
32147;DHT22;32190;49.112;8.598;2023-04-08T13:32:16;16.70;42.10
32147;DHT22;32190;49.112;8.598;2023-04-08T13:38:07;16.90;41.80
32147;DHT22;32190;49.112;8.598;2023-04-08T13:43:57;16.90;41.60
32147;DHT22;32190;49.112;8.598;2023-04-08T13:49:48;17.00;41.50
32147;DHT22;32190;49.112;8.598;2023-04-08T13:55:39;17.00;41.40
32147;DHT22;32190;49.112;8.598;2023-04-08T14:01:30;17.10;41.80
32147;DHT22;32190;49.112;8.598;2023-04-08T14:07:21;17.10;41.30
32147;DHT22;32190;49.112;8.598;2023-04-08T14:13:11;17.10;41.00
32147;DHT22;32190;49.112;8.598;2023-04-08T14:19:02;17.20;41.40
32147;DHT22;32190;49.112;8.598;2023-04-08T14:24:54;17.30;41.60
32147;DHT22;32190;49.112;8.598;2023-04-08T14:30:44;17.40;41.80
32147;DHT22;32190;49.112;8.598;2023-04-08T14:36:36;17.60;42.00
32147;DHT22;32190;49.112;8.598;2023-04-08T14:42:27;17.70;41.80
32147;DHT22;32190;49.112;8.598;2023-04-08T14:48:18;17.70;41.50
32147;DHT22;32190;49.112;8.598;2023-04-08T14:54:09;17.70;41.50
32147;DHT22;32190;49.112;8.598;2023-04-08T14:59:59;17.60;41.50
32147;DHT22;32190;49.112;8.598;2023-04-08T15:05:50;17.50;41.80
32147;DHT22;32190;49.112;8.598;2023-04-08T15:11:40;17.50;41.90
32147;DHT22;32190;49.112;8.598;2023-04-08T15:17:31;17.50;41.80
32147;DHT22;32190;49.112;8.598;2023-04-08T15:23:23;17.40;41.50
32147;DHT22;32190;49.112;8.598;2023-04-08T15:29:13;17.30;41.60
32147;DHT22;32190;49.112;8.598;2023-04-08T15:35:04;17.30;41.60
32147;DHT22;32190;49.112;8.598;2023-04-08T15:40:55;17.20;41.90
32147;DHT22;32190;49.112;8.598;2023-04-08T15:46:46;17.20;41.80
32147;DHT22;32190;49.112;8.598;2023-04-08T15:52:37;17.20;41.80
32147;DHT22;32190;49.112;8.598;2023-04-08T15:58:27;17.20;42.00
32147;DHT22;32190;49.112;8.598;2023-04-08T16:04:18;17.20;41.80
32147;DHT22;32190;49.112;8.598;2023-04-08T16:10:09;17.20;42.20
32147;DHT22;32190;49.112;8.598;2023-04-08T16:16:03;17.20;42.00
32147;DHT22;32190;49.112;8.598;2023-04-08T16:21:53;17.20;42.60
32147;DHT22;32190;49.112;8.598;2023-04-08T16:27:44;17.10;42.20
32147;DHT22;32190;49.112;8.598;2023-04-08T16:33:34;17.10;42.40
32147;DHT22;32190;49.112;8.598;2023-04-08T16:39:26;17.00;42.70
32147;DHT22;32190;49.112;8.598;2023-04-08T16:45:17;17.00;42.90
32147;DHT22;32190;49.112;8.598;2023-04-08T16:51:09;17.00;43.10
32147;DHT22;32190;49.112;8.598;2023-04-08T16:56:59;17.00;43.30
32147;DHT22;32190;49.112;8.598;2023-04-08T17:02:50;16.90;43.40
32147;DHT22;32190;49.112;8.598;2023-04-08T17:08:44;16.90;43.50
32147;DHT22;32190;49.112;8.598;2023-04-08T17:14:35;16.80;43.60
32147;DHT22;32190;49.112;8.598;2023-04-08T17:20:25;16.90;43.80
32147;DHT22;32190;49.112;8.598;2023-04-08T17:26:17;16.90;43.70
32147;DHT22;32190;49.112;8.598;2023-04-08T17:32:07;16.90;43.70
32147;DHT22;32190;49.112;8.598;2023-04-08T17:37:58;16.90;43.90
32147;DHT22;32190;49.112;8.598;2023-04-08T17:43:48;17.00;43.90
32147;DHT22;32190;49.112;8.598;2023-04-08T17:49:39;17.00;43.90
32147;DHT22;32190;49.112;8.598;2023-04-08T17:55:30;17.00;44.10
32147;DHT22;32190;49.112;8.598;2023-04-08T18:01:20;17.00;44.20
32147;DHT22;32190;49.112;8.598;2023-04-08T18:07:11;17.00;44.30
32147;DHT22;32190;49.112;8.598;2023-04-08T18:13:02;16.90;44.30
32147;DHT22;32190;49.112;8.598;2023-04-08T18:18:52;16.90;44.50
32147;DHT22;32190;49.112;8.598;2023-04-08T18:24:43;16.90;44.60
32147;DHT22;32190;49.112;8.598;2023-04-08T18:30:33;16.90;44.70
32147;DHT22;32190;49.112;8.598;2023-04-08T18:36:24;16.80;44.80
32147;DHT22;32190;49.112;8.598;2023-04-08T18:42:18;16.80;44.80
32147;DHT22;32190;49.112;8.598;2023-04-08T18:48:09;16.80;45.00
32147;DHT22;32190;49.112;8.598;2023-04-08T18:54:01;16.80;45.00
32147;DHT22;32190;49.112;8.598;2023-04-08T18:59:52;16.70;45.00
32147;DHT22;32190;49.112;8.598;2023-04-08T19:05:45;16.70;45.10
32147;DHT22;32190;49.112;8.598;2023-04-08T19:11:36;16.70;45.20
32147;DHT22;32190;49.112;8.598;2023-04-08T19:17:27;16.60;45.20
32147;DHT22;32190;49.112;8.598;2023-04-08T19:23:17;16.60;45.30
32147;DHT22;32190;49.112;8.598;2023-04-08T19:29:08;16.60;45.50
32147;DHT22;32190;49.112;8.598;2023-04-08T19:35:15;16.60;45.60
32147;DHT22;32190;49.112;8.598;2023-04-08T19:41:05;16.50;45.50
32147;DHT22;32190;49.112;8.598;2023-04-08T19:46:56;16.50;45.70
32147;DHT22;32190;49.112;8.598;2023-04-08T19:52:47;16.40;45.90
32147;DHT22;32190;49.112;8.598;2023-04-08T19:58:38;16.40;45.90
32147;DHT22;32190;49.112;8.598;2023-04-08T20:04:32;16.30;46.00
32147;DHT22;32190;49.112;8.598;2023-04-08T20:10:22;16.20;46.10
32147;DHT22;32190;49.112;8.598;2023-04-08T20:16:15;16.20;46.20
32147;DHT22;32190;49.112;8.598;2023-04-08T20:22:20;16.10;46.40
32147;DHT22;32190;49.112;8.598;2023-04-08T20:28:13;16.10;46.60
32147;DHT22;32190;49.112;8.598;2023-04-08T20:34:03;16.10;46.60
32147;DHT22;32190;49.112;8.598;2023-04-08T20:39:54;16.10;46.70
32147;DHT22;32190;49.112;8.598;2023-04-08T20:45:44;16.00;46.80
32147;DHT22;32190;49.112;8.598;2023-04-08T20:51:35;16.00;46.90
32147;DHT22;32190;49.112;8.598;2023-04-08T20:57:31;15.90;47.00
32147;DHT22;32190;49.112;8.598;2023-04-08T21:03:25;15.80;47.30
32147;DHT22;32190;49.112;8.598;2023-04-08T21:09:16;15.80;47.30
32147;DHT22;32190;49.112;8.598;2023-04-08T21:15:08;15.70;47.50
32147;DHT22;32190;49.112;8.598;2023-04-08T21:20:58;15.70;47.60
32147;DHT22;32190;49.112;8.598;2023-04-08T21:26:49;15.60;47.60
32147;DHT22;32190;49.112;8.598;2023-04-08T21:32:39;15.60;47.80
32147;DHT22;32190;49.112;8.598;2023-04-08T21:38:34;15.60;47.80
32147;DHT22;32190;49.112;8.598;2023-04-08T21:44:24;15.50;48.10
32147;DHT22;32190;49.112;8.598;2023-04-08T21:50:16;15.50;47.90
32147;DHT22;32190;49.112;8.598;2023-04-08T21:56:09;15.50;47.90
32147;DHT22;32190;49.112;8.598;2023-04-08T22:02:10;15.30;48.20
32147;DHT22;32190;49.112;8.598;2023-04-08T22:08:00;15.20;48.00
32147;DHT22;32190;49.112;8.598;2023-04-08T22:13:51;15.20;48.10
32147;DHT22;32190;49.112;8.598;2023-04-08T22:19:42;15.20;48.10
32147;DHT22;32190;49.112;8.598;2023-04-08T22:25:32;15.20;48.10
32147;DHT22;32190;49.112;8.598;2023-04-08T22:31:23;15.20;48.10
32147;DHT22;32190;49.112;8.598;2023-04-08T22:37:13;15.20;48.10
32147;DHT22;32190;49.112;8.598;2023-04-08T22:43:04;15.30;48.00
32147;DHT22;32190;49.112;8.598;2023-04-08T22:48:54;15.20;48.00
32147;DHT22;32190;49.112;8.598;2023-04-08T22:54:45;15.20;48.00
32147;DHT22;32190;49.112;8.598;2023-04-08T23:00:35;15.20;48.10
32147;DHT22;32190;49.112;8.598;2023-04-08T23:06:26;15.20;48.10
32147;DHT22;32190;49.112;8.598;2023-04-08T23:12:18;15.10;48.00
32147;DHT22;32190;49.112;8.598;2023-04-08T23:18:08;15.10;47.90
32147;DHT22;32190;49.112;8.598;2023-04-08T23:23:59;15.00;47.80
32147;DHT22;32190;49.112;8.598;2023-04-08T23:29:49;15.00;47.80
32147;DHT22;32190;49.112;8.598;2023-04-08T23:35:40;14.90;47.80
32147;DHT22;32190;49.112;8.598;2023-04-08T23:41:31;14.90;47.80
32147;DHT22;32190;49.112;8.598;2023-04-08T23:47:21;14.90;47.80
32147;DHT22;32190;49.112;8.598;2023-04-08T23:53:12;14.90;47.80
32147;DHT22;32190;49.112;8.598;2023-04-08T23:59:03;14.80;47.70
